createdAt,value
2018-08-07T00:00:39.574Z,15.6
2018-08-07T00:01:29.639Z,15.5
2018-08-07T00:02:19.623Z,15.5
2018-08-07T00:03:09.808Z,15.5
2018-08-07T00:03:59.582Z,15.5
2018-08-07T00:04:49.609Z,15.5
2018-08-07T00:05:39.684Z,15.4
2018-08-07T00:06:29.742Z,15.4
2018-08-07T00:07:20.095Z,15.4
2018-08-07T00:08:10.154Z,15.4
2018-08-07T00:09:00.228Z,15.4
2018-08-07T00:09:50.285Z,15.4
2018-08-07T00:10:40.129Z,15.4
2018-08-07T00:11:30.421Z,15.4
2018-08-07T00:12:20.191Z,15.3
2018-08-07T00:13:10.263Z,15.3
2018-08-07T00:14:00.601Z,15.3
2018-08-07T00:14:50.693Z,15.3
2018-08-07T00:15:40.901Z,15.3
2018-08-07T00:16:30.794Z,15.3
2018-08-07T00:17:20.851Z,15.3
2018-08-07T00:18:10.933Z,15.3
2018-08-07T00:19:00.978Z,15.2
2018-08-07T00:19:50.795Z,15.3
2018-08-07T00:20:41.135Z,15.2
2018-08-07T00:21:30.900Z,15.2
2018-08-07T00:22:21.240Z,15.2
2018-08-07T00:23:11.020Z,15.2
2018-08-07T00:24:01.084Z,15.2
2018-08-07T00:24:51.145Z,15.2
2018-08-07T00:25:40.943Z,15.1
2018-08-07T00:26:31.580Z,15.2
2018-08-07T00:27:21.365Z,15.2
2018-08-07T00:28:11.710Z,15.2
2018-08-07T00:29:01.767Z,15.1
2018-08-07T00:29:51.845Z,15.1
2018-08-07T00:30:41.869Z,15.1
2018-08-07T00:31:31.992Z,15.1
2018-08-07T00:32:21.731Z,15.1
2018-08-07T00:33:12.076Z,15.1
2018-08-07T00:34:02.148Z,15.1
2018-08-07T00:34:51.655Z,15.1
2018-08-07T00:35:42.294Z,15.1
2018-08-07T00:36:32.368Z,15.1
2018-08-07T00:37:22.417Z,15.1
2018-08-07T00:38:12.486Z,15
2018-08-07T00:39:02.555Z,15
2018-08-07T00:39:52.607Z,15
2018-08-07T00:40:42.724Z,15
2018-08-07T00:41:32.722Z,15
2018-08-07T00:42:22.780Z,15
2018-08-07T00:43:12.566Z,14.9
2018-08-07T00:44:02.935Z,14.9
2018-08-07T00:44:52.706Z,14.9
2018-08-07T00:45:42.502Z,14.9
2018-08-07T00:46:32.830Z,14.9
2018-08-07T00:47:22.888Z,14.9
2018-08-07T00:48:13.245Z,14.9
2018-08-07T00:49:03.308Z,14.9
2018-08-07T00:49:53.370Z,14.9
2018-08-07T00:50:42.865Z,14.9
2018-08-07T00:51:33.213Z,14.9
2018-08-07T00:52:22.993Z,14.9
2018-08-07T00:53:13.338Z,14.8
2018-08-07T00:54:03.430Z,14.8
2018-08-07T00:54:53.231Z,14.8
2018-08-07T00:55:43.546Z,14.8
2018-08-07T00:56:33.601Z,14.8
2018-08-07T00:57:23.721Z,14.8
2018-08-07T00:58:14.021Z,14.8
2018-08-07T00:59:03.789Z,14.8
2018-08-07T00:59:53.326Z,14.8
2018-08-07T01:00:43.920Z,14.7
2018-08-07T01:01:34.057Z,14.7
2018-08-07T01:02:23.758Z,14.7
2018-08-07T01:03:14.127Z,14.7
2018-08-07T01:04:04.189Z,14.7
2018-08-07T01:04:54.225Z,14.6
2018-08-07T01:05:43.738Z,14.6
2018-08-07T01:06:34.666Z,14.6
2018-08-07T01:07:24.726Z,14.6
2018-08-07T01:08:14.500Z,14.6
2018-08-07T01:09:04.857Z,14.6
2018-08-07T01:09:54.912Z,14.6
2018-08-07T01:10:44.692Z,14.6
2018-08-07T01:11:35.045Z,14.6
2018-08-07T01:12:24.827Z,14.6
2018-08-07T01:13:14.612Z,14.6
2018-08-07T01:14:05.244Z,14.6
2018-08-07T01:14:55.298Z,14.6
2018-08-07T01:15:45.076Z,14.6
2018-08-07T01:16:35.424Z,14.6
2018-08-07T01:17:25.504Z,14.6
2018-08-07T01:18:15.262Z,14.6
2018-08-07T01:19:05.605Z,14.6
2018-08-07T01:19:55.105Z,14.6
2018-08-07T01:20:45.765Z,14.5
2018-08-07T01:21:35.535Z,14.5
2018-08-07T01:22:25.900Z,14.5
2018-08-07T01:23:15.951Z,14.5
2018-08-07T01:24:05.732Z,14.4
2018-08-07T01:24:56.052Z,14.4
2018-08-07T01:25:45.859Z,14.4
2018-08-07T01:26:36.194Z,14.4
2018-08-07T01:27:26.271Z,14.4
2018-08-07T01:28:16.327Z,14.4
2018-08-07T01:29:06.096Z,14.4
2018-08-07T01:29:56.502Z,14.4
2018-08-07T01:30:46.512Z,14.4
2018-08-07T01:31:36.606Z,14.3
2018-08-07T01:32:26.659Z,14.3
2018-08-07T01:33:16.712Z,14.3
2018-08-07T01:34:06.476Z,14.3
2018-08-07T01:34:56.856Z,14.3
2018-08-07T01:35:46.891Z,14.3
2018-08-07T01:36:36.960Z,14.2
2018-08-07T01:37:27.022Z,14.2
2018-08-07T01:38:17.093Z,14.3
2018-08-07T01:39:07.139Z,14.2
2018-08-07T01:39:57.226Z,14.2
2018-08-07T01:40:47.275Z,14.1
2018-08-07T01:41:37.371Z,14.2
2018-08-07T01:42:27.410Z,14.1
2018-08-07T01:43:17.185Z,14.1
2018-08-07T01:44:07.547Z,14.1
2018-08-07T01:44:57.591Z,14.1
2018-08-07T01:45:47.651Z,14.1
2018-08-07T01:46:37.729Z,14.1
2018-08-07T01:47:27.510Z,14.1
2018-08-07T01:48:17.575Z,14.1
2018-08-07T01:49:07.930Z,14.1
2018-08-07T01:49:57.417Z,14.1
2018-08-07T01:50:47.757Z,14.1
2018-08-07T01:51:37.835Z,14.1
2018-08-07T01:52:27.896Z,14.1
2018-08-07T01:53:18.050Z,14.1
2018-08-07T01:54:08.304Z,14.1
2018-08-07T01:54:58.086Z,14
2018-08-07T01:55:47.571Z,14.1
2018-08-07T01:56:38.487Z,14.1
2018-08-07T01:57:28.569Z,14.1
2018-08-07T01:58:18.614Z,14
2018-08-07T01:59:08.693Z,14.1
2018-08-07T01:59:58.752Z,14
2018-08-07T02:00:48.574Z,14
2018-08-07T05:07:00.222Z,19.1
2018-08-07T05:07:49.982Z,19.4
2018-08-07T05:08:40.541Z,19.6
2018-08-07T05:09:30.336Z,19.8
2018-08-07T05:10:20.791Z,19.9
2018-08-07T05:11:10.747Z,20.2
2018-08-07T05:12:00.579Z,20.4
2018-08-07T05:12:50.861Z,20.6
2018-08-07T05:13:40.634Z,20.8
2018-08-07T05:14:30.962Z,21.1
2018-08-07T05:15:20.769Z,21.3
2018-08-07T05:16:11.108Z,21.4
2018-08-07T05:17:01.249Z,21.7
2018-08-07T05:17:50.969Z,21.9
2018-08-07T05:18:41.015Z,22.2
2018-08-07T05:19:31.396Z,22.4
2018-08-07T05:20:21.439Z,22.7
2018-08-07T05:21:11.486Z,22.9
2018-08-07T05:22:01.283Z,23.2
2018-08-07T05:22:51.335Z,23.5
2018-08-07T05:23:41.416Z,23.8
2018-08-07T05:24:31.480Z,24
2018-08-07T05:25:21.801Z,24.3
2018-08-07T05:26:11.591Z,24.5
2018-08-07T05:27:01.947Z,24.8
2018-08-07T05:27:51.729Z,25.1
2018-08-07T05:28:42.223Z,25.4
2018-08-07T05:29:32.125Z,25.6
2018-08-07T05:30:22.211Z,25.9
2018-08-07T05:31:12.027Z,26.2
2018-08-07T05:32:02.059Z,26.4
2018-08-07T05:32:52.385Z,26.8
2018-08-07T05:33:42.184Z,27
2018-08-07T05:34:32.510Z,27.3
2018-08-07T05:35:22.304Z,27.6
2018-08-07T05:36:12.102Z,27.9
2018-08-07T05:37:02.464Z,28.2
2018-08-07T05:37:52.809Z,28.5
2018-08-07T05:38:42.585Z,28.8
2018-08-07T05:39:32.610Z,29.1
2018-08-07T05:40:22.965Z,29.4
2018-08-07T05:41:12.771Z,29.8
2018-08-07T05:42:03.103Z,30.1
2018-08-07T05:42:53.859Z,30.4
2018-08-07T05:43:42.955Z,30.7
2018-08-07T05:44:33.032Z,31
2018-08-07T05:45:23.350Z,31.3
2018-08-07T05:46:13.442Z,31.6
2018-08-07T05:47:03.519Z,32
2018-08-07T05:47:53.286Z,32.3
2018-08-07T05:48:43.316Z,32.6
2018-08-07T05:49:33.676Z,33
2018-08-07T05:50:24.503Z,33.3
2018-08-07T05:51:15.682Z,33.8
2018-08-07T05:52:03.874Z,34.1
2018-08-07T05:52:53.928Z,34.4
2018-08-07T05:53:44.019Z,34.8
2018-08-07T05:54:34.069Z,35.1
2018-08-07T05:55:24.130Z,35.5
2018-08-07T05:56:13.919Z,35.9
2018-08-07T05:57:03.713Z,36.2
2018-08-07T05:57:54.444Z,36.6
2018-08-07T05:58:58.833Z,37
2018-08-07T05:59:34.455Z,37.4
2018-08-07T06:00:24.251Z,37.8
2018-08-07T06:01:14.028Z,38.1
2018-08-07T06:02:04.726Z,38.5
2018-08-07T06:02:54.695Z,38.9
2018-08-07T06:03:44.777Z,39.3
2018-08-07T06:04:34.932Z,39.7
2018-08-07T06:05:24.898Z,40.1
2018-08-07T06:06:14.693Z,40.4
2018-08-07T06:07:04.746Z,40.9
2018-08-07T06:07:55.336Z,41.3
2018-08-07T06:08:45.156Z,41.7
2018-08-07T06:09:34.938Z,42.2
2018-08-07T06:10:25.286Z,42.4
2018-08-07T06:11:15.342Z,42.8
2018-08-07T06:12:05.439Z,43.2
2018-08-07T06:12:55.480Z,43.6
2018-08-07T06:13:45.273Z,44
2018-08-07T06:14:35.648Z,44.4
2018-08-07T06:15:25.664Z,44.8
2018-08-07T06:16:15.454Z,45.1
2018-08-07T06:17:05.833Z,45.4
2018-08-07T06:17:55.866Z,45.8
2018-08-07T06:18:45.677Z,46.1
2018-08-07T06:19:36.015Z,46.5
2018-08-07T06:20:26.070Z,46.9
2018-08-07T06:21:16.106Z,47.3
2018-08-07T06:22:06.194Z,47.7
2018-08-07T06:22:56.240Z,48.1
2018-08-07T06:23:46.337Z,48.4
2018-08-07T06:24:36.382Z,48.9
2018-08-07T06:25:26.448Z,49.3
2018-08-07T06:26:16.510Z,49.6
2018-08-07T06:27:06.601Z,50
2018-08-07T06:27:56.105Z,50.3
2018-08-07T06:28:45.946Z,50.8
2018-08-07T06:29:36.978Z,51.1
2018-08-07T06:30:26.004Z,51.4
2018-08-07T06:31:16.742Z,51.8
2018-08-07T06:32:06.989Z,52.1
2018-08-07T06:32:56.479Z,52.4
2018-08-07T06:33:46.537Z,52.8
2018-08-07T06:34:37.212Z,53.2
2018-08-07T06:35:26.955Z,53.6
2018-08-07T06:36:16.447Z,54
2018-08-07T06:37:07.079Z,54.4
2018-08-07T06:37:57.659Z,54.8
2018-08-07T06:38:47.490Z,55.2
2018-08-07T06:39:37.576Z,55.6
2018-08-07T06:40:27.617Z,55.9
2018-08-07T06:41:17.420Z,56.3
2018-08-07T06:42:07.477Z,57.4
2018-08-07T06:42:58.250Z,57.8
2018-08-07T06:43:47.876Z,56.5
2018-08-07T06:44:37.947Z,53.9
2018-08-07T06:45:28.019Z,50.4
2018-08-07T06:46:18.079Z,48.3
2018-08-07T06:47:07.576Z,47.2
2018-08-07T06:47:58.391Z,46.5
2018-08-07T06:48:48.246Z,46.1
2018-08-07T06:49:38.053Z,46
2018-08-07T06:50:28.119Z,46.2
2018-08-07T06:51:18.177Z,46.6
2018-08-07T06:52:08.511Z,47.2
2018-08-07T06:52:58.601Z,47.8
2018-08-07T06:53:48.650Z,48.4
2018-08-07T06:54:38.708Z,49.3
2018-08-07T06:55:28.776Z,49.8
2018-08-07T06:56:18.569Z,50.5
2018-08-07T06:57:09.144Z,51.3
2018-08-07T06:57:58.961Z,52
2018-08-07T06:58:48.742Z,52.7
2018-08-07T06:59:39.113Z,53.3
2018-08-07T07:00:29.176Z,54
2018-08-07T07:01:19.223Z,54.6
2018-08-07T07:02:09.327Z,55.3
2018-08-07T07:02:59.732Z,55.9
2018-08-07T07:03:49.159Z,56.6
2018-08-07T07:04:39.245Z,58.1
2018-08-07T07:05:29.613Z,58.4
2018-08-07T07:06:20.010Z,57
2018-08-07T07:07:09.686Z,55.1
2018-08-07T07:07:59.219Z,53
2018-08-07T07:08:49.831Z,51.6
2018-08-07T07:09:39.763Z,50.7
2018-08-07T07:10:30.031Z,50.3
2018-08-07T07:11:20.027Z,50.4
2018-08-07T07:12:10.097Z,50.9
2018-08-07T07:13:00.142Z,51.4
2018-08-07T07:13:49.925Z,52
2018-08-07T07:14:40.269Z,52.8
2018-08-07T07:15:30.342Z,53.6
2018-08-07T07:16:20.397Z,54.4
2018-08-07T07:17:10.466Z,55.3
2018-08-07T07:18:00.535Z,56.2
2018-08-07T07:18:50.331Z,57.5
2018-08-07T07:19:40.186Z,59
2018-08-07T07:20:29.958Z,58.8
2018-08-07T07:21:20.779Z,58.3
2018-08-07T07:22:10.845Z,57.1
2018-08-07T07:23:00.925Z,55.6
2018-08-07T07:23:50.971Z,54.3
2018-08-07T07:24:41.063Z,54
2018-08-07T07:25:31.146Z,54.5
2018-08-07T07:26:21.173Z,55.1
2018-08-07T07:27:11.233Z,55.6
2018-08-07T07:28:00.751Z,55.7
2018-08-07T07:28:51.101Z,55.6
2018-08-07T07:29:41.446Z,55.3
2018-08-07T07:30:31.497Z,55.1
2018-08-07T07:31:21.358Z,55.3
2018-08-07T07:32:11.627Z,55.4
2018-08-07T07:33:01.687Z,55.6
2018-08-07T07:33:51.753Z,55.8
2018-08-07T07:34:42.260Z,55.8
2018-08-07T07:35:31.886Z,55.8
2018-08-07T07:36:21.704Z,55.8
2018-08-07T07:37:12.005Z,55.9
2018-08-07T07:38:02.123Z,56
2018-08-07T07:38:52.144Z,56.1
2018-08-07T07:39:42.218Z,56.3
2018-08-07T07:40:32.128Z,56.4
2018-08-07T07:41:22.096Z,56.6
2018-08-07T07:42:12.137Z,56.8
2018-08-07T07:43:02.192Z,56.9
2018-08-07T07:43:51.992Z,57
2018-08-07T07:44:42.339Z,57.1
2018-08-07T07:45:32.468Z,57.3
2018-08-07T07:46:22.476Z,57.4
2018-08-07T07:47:13.323Z,57.6
2018-08-07T07:48:02.312Z,57.7
2018-08-07T07:48:52.948Z,57.8
2018-08-07T07:49:43.001Z,57.9
2018-08-07T07:50:33.052Z,58.1
2018-08-07T07:51:22.563Z,58.2
2018-08-07T07:52:12.909Z,58.3
2018-08-07T07:53:17.911Z,58.5
2018-08-07T07:53:53.402Z,58.7
2018-08-07T07:54:43.119Z,58.8
2018-08-07T07:55:32.891Z,58.9
2018-08-07T07:56:23.528Z,59
2018-08-07T07:57:13.821Z,59.1
2018-08-07T07:58:03.827Z,59.1
2018-08-07T07:58:53.698Z,59.3
2018-08-07T07:59:43.481Z,59.4
2018-08-07T08:00:33.831Z,59.5
2018-08-07T08:01:23.931Z,59.6
2018-08-07T08:02:13.971Z,59.7
2018-08-07T08:03:04.058Z,59.8
2018-08-07T08:03:54.091Z,59.8
2018-08-07T08:04:44.193Z,59.9
2018-08-07T08:05:33.923Z,59.9
2018-08-07T08:06:24.288Z,60.1
2018-08-07T08:07:14.128Z,60.2
2018-08-07T08:08:04.173Z,60.3
2018-08-07T08:08:54.470Z,60.3
2018-08-07T08:09:44.538Z,60.4
2018-08-07T08:10:34.340Z,60.5
2018-08-07T08:11:24.113Z,60.6
2018-08-07T08:12:14.755Z,60.6
2018-08-07T08:13:04.808Z,60.8
2018-08-07T08:13:54.890Z,60.9
2018-08-07T08:14:44.656Z,61.1
2018-08-07T08:15:35.001Z,61.2
2018-08-07T08:16:25.054Z,61.3
2018-08-07T08:17:15.147Z,61.5
2018-08-07T08:18:04.652Z,61.6
2018-08-07T08:18:55.270Z,61.8
2018-08-07T08:19:45.350Z,61.9
2018-08-07T08:20:35.107Z,62.1
2018-08-07T08:21:25.467Z,62.1
2018-08-07T08:22:15.530Z,62.3
2018-08-07T08:23:05.311Z,62.4
2018-08-07T08:23:55.671Z,62.5
2018-08-07T08:24:45.437Z,62.6
2018-08-07T08:25:35.792Z,62.8
2018-08-07T08:26:25.858Z,62.8
2018-08-07T08:27:15.921Z,62.9
2018-08-07T08:28:05.983Z,63.1
2018-08-07T08:28:56.036Z,63.1
2018-08-07T08:29:46.486Z,63.3
2018-08-07T08:30:35.615Z,63.4
2018-08-07T08:31:26.249Z,63.4
2018-08-07T08:32:16.060Z,63.6
2018-08-07T08:33:06.384Z,63.7
2018-08-07T08:33:56.428Z,63.8
2018-08-07T08:34:46.745Z,63.9
2018-08-07T08:35:36.875Z,64
2018-08-07T08:36:26.630Z,64.1
2018-08-07T08:37:16.672Z,64.1
2018-08-07T08:38:06.764Z,64.2
2018-08-07T08:38:56.864Z,64.3
2018-08-07T08:39:46.610Z,64.4
2018-08-07T08:40:36.709Z,64.5
2018-08-07T08:41:26.741Z,64.6
2018-08-07T08:42:17.075Z,64.7
2018-08-07T08:43:06.874Z,64.8
2018-08-07T08:43:57.231Z,64.9
2018-08-07T08:44:47.294Z,65
2018-08-07T08:45:37.336Z,65.1
2018-08-07T08:46:27.411Z,65.1
2018-08-07T08:47:17.472Z,65.2
2018-08-07T08:48:07.812Z,65.3
2018-08-07T08:48:57.067Z,65.4
2018-08-07T08:49:46.830Z,65.4
2018-08-07T08:50:37.457Z,65.5
2018-08-07T08:51:27.811Z,65.6
2018-08-07T08:52:17.877Z,65.6
2018-08-07T08:53:07.951Z,65.7
2018-08-07T08:53:57.807Z,65.8
2018-08-07T08:54:48.099Z,65.8
2018-08-07T08:55:37.578Z,65.9
2018-08-07T08:56:28.192Z,65.9
2018-08-07T08:57:18.283Z,66.1
2018-08-07T08:58:08.343Z,66.1
2018-08-07T08:58:58.169Z,66.2
2018-08-07T08:59:48.456Z,66.3
2018-08-07T09:00:38.260Z,66.4
2018-08-07T09:01:28.327Z,66.5
2018-08-07T09:02:18.649Z,66.6
2018-08-07T09:03:08.761Z,66.6
2018-08-07T09:03:58.800Z,66.7
2018-08-07T09:21:23.594Z,67.6
2018-08-07T09:22:13.969Z,67.7
2018-08-07T09:23:04.000Z,67.8
2018-08-07T09:23:53.767Z,67.8
2018-08-07T09:24:44.124Z,67.9
2018-08-07T09:25:35.149Z,67.9
2018-08-07T09:26:24.250Z,67.9
2018-08-07T09:27:14.309Z,67.9
2018-08-07T09:28:04.380Z,67.8
2018-08-07T09:28:54.448Z,67.8
2018-08-07T09:29:44.499Z,67.8
2018-08-07T09:30:34.307Z,67.9
2018-08-07T09:31:24.105Z,67.9
2018-08-07T09:32:14.707Z,67.8
2018-08-07T09:33:05.207Z,67.8
2018-08-07T09:33:54.831Z,67.8
2018-08-07T09:34:44.936Z,67.6
2018-08-07T09:35:34.691Z,67.6
2018-08-07T09:36:25.041Z,67.6
2018-08-07T09:37:15.108Z,67.6
2018-08-07T09:38:05.157Z,67.7
2018-08-07T09:38:55.235Z,67.8
2018-08-07T09:39:45.701Z,67.9
2018-08-07T09:40:35.108Z,67.9
2018-08-07T09:41:25.424Z,67.9
2018-08-07T09:42:15.500Z,67.9
2018-08-07T09:43:05.574Z,68.1
2018-08-07T09:43:55.685Z,68.1
2018-08-07T09:44:45.456Z,68.1
2018-08-07T09:45:35.757Z,68.1
2018-08-07T09:46:25.858Z,68
2018-08-07T09:47:15.336Z,68.1
2018-08-07T09:48:05.950Z,68.1
2018-08-07T09:48:56.001Z,68.1
2018-08-07T09:49:46.323Z,68.2
2018-08-07T09:50:35.870Z,68.3
2018-08-07T09:51:26.239Z,68.4
2018-08-07T09:52:16.387Z,68.6
2018-08-07T09:53:05.493Z,68.8
2018-08-07T09:53:56.397Z,68.9
2018-08-07T09:54:46.457Z,69.1
2018-08-07T09:55:36.260Z,69.3
2018-08-07T09:56:26.592Z,69.3
2018-08-07T09:57:16.385Z,69.3
2018-08-07T09:58:06.733Z,69.2
2018-08-07T09:58:56.525Z,69.1
2018-08-07T09:59:46.840Z,69.1
2018-08-07T10:00:36.660Z,69
2018-08-07T10:01:26.723Z,69.1
2018-08-07T10:02:17.052Z,69.1
2018-08-07T10:03:06.860Z,69.2
2018-08-07T10:03:56.635Z,69.3
2018-08-07T10:04:46.980Z,69.3
2018-08-07T10:05:38.051Z,69.3
2018-08-07T10:06:27.393Z,69.3
2018-08-07T10:07:17.456Z,69.3
2018-08-07T10:08:07.511Z,69.3
2018-08-07T10:08:57.572Z,69.3
2018-08-07T10:09:47.640Z,69.4
2018-08-07T10:10:37.717Z,69.4
2018-08-07T10:11:27.768Z,69.4
2018-08-07T10:12:17.864Z,69.4
2018-08-07T10:13:07.900Z,69.4
2018-08-07T10:13:57.684Z,69.3
2018-08-07T10:14:47.760Z,69.1
2018-08-07T10:15:37.809Z,69.1
2018-08-07T10:16:28.164Z,69
2018-08-07T10:17:18.274Z,68.9
2018-08-07T10:18:08.020Z,68.8
2018-08-07T10:18:58.369Z,68.6
2018-08-07T10:19:48.151Z,68.5
2018-08-07T10:20:38.527Z,68.5
2018-08-07T10:21:28.570Z,68.4
2018-08-07T10:22:18.608Z,68.4
2018-08-07T10:23:08.875Z,68.5
2018-08-07T10:23:58.731Z,68.6
2018-08-07T10:24:48.800Z,68.6
2018-08-07T10:25:38.872Z,68.7
2018-08-07T10:26:28.929Z,68.8
2018-08-07T10:27:19.014Z,68.9
2018-08-07T10:28:08.523Z,69
2018-08-07T10:28:59.131Z,69.1
2018-08-07T10:29:48.944Z,69.1
2018-08-07T10:30:39.601Z,69.1
2018-08-07T10:31:29.496Z,69.2
2018-08-07T10:32:18.854Z,69.3
2018-08-07T10:33:09.207Z,69.3
2018-08-07T10:33:59.524Z,69.4
2018-08-07T10:34:49.582Z,69.4
2018-08-07T10:35:39.401Z,69.5
2018-08-07T10:36:29.197Z,69.6
2018-08-07T10:37:19.803Z,69.7
2018-08-07T10:38:09.859Z,69.8
2018-08-07T10:38:59.918Z,69.9
2018-08-07T10:39:50.026Z,69.9
2018-08-07T10:40:40.487Z,69.9
2018-08-07T10:41:30.130Z,69.8
2018-08-07T10:42:19.923Z,69.6
2018-08-07T10:43:10.793Z,69.5
2018-08-07T10:44:00.602Z,69.5
2018-08-07T10:44:50.124Z,69.6
2018-08-07T10:45:40.449Z,69.6
2018-08-07T10:46:30.536Z,69.8
2018-08-07T10:47:20.569Z,69.8
2018-08-07T10:48:10.652Z,69.9
2018-08-07T10:49:00.451Z,69.9
2018-08-07T10:49:50.509Z,70
2018-08-07T10:50:40.950Z,70.1
2018-08-07T10:51:30.916Z,70.1
2018-08-07T10:52:21.457Z,70
2018-08-07T10:53:11.046Z,70.1
2018-08-07T10:54:01.105Z,70.1
2018-08-07T10:54:51.168Z,70
2018-08-07T10:55:40.971Z,70
2018-08-07T10:56:31.638Z,70
2018-08-07T10:57:21.083Z,69.9
2018-08-07T10:58:11.581Z,69.9
2018-08-07T10:59:01.612Z,69.9
2018-08-07T10:59:51.571Z,69.9
2018-08-07T11:00:41.072Z,70
2018-08-07T11:01:31.712Z,70
2018-08-07T11:02:21.741Z,70
2018-08-07T11:03:11.533Z,70
2018-08-07T11:04:01.895Z,70
2018-08-07T11:04:51.944Z,70.1
2018-08-07T11:05:42.275Z,70.1
2018-08-07T11:06:32.069Z,70.1
2018-08-07T11:07:22.136Z,70.3
2018-08-07T11:08:12.186Z,70.3
2018-08-07T11:09:01.988Z,70.4
2018-08-07T11:09:52.371Z,70.5
2018-08-07T11:10:42.434Z,70.6
2018-08-07T11:11:32.476Z,70.6
2018-08-07T11:12:22.549Z,70.6
2018-08-07T11:13:12.594Z,70.4
2018-08-07T11:14:02.661Z,70.3
2018-08-07T11:14:52.741Z,70.2
2018-08-07T11:15:42.521Z,70.1
2018-08-07T11:16:32.853Z,70.1
2018-08-07T11:17:22.667Z,70.1
2018-08-07T11:18:12.421Z,70.2
2018-08-07T11:19:02.798Z,70.2
2018-08-07T11:19:53.155Z,70.3
2018-08-07T11:20:43.189Z,70.3
2018-08-07T11:21:32.734Z,70.4
2018-08-07T11:22:23.052Z,70.4
2018-08-07T11:23:13.377Z,70.5
2018-08-07T11:24:03.450Z,70.5
2018-08-07T11:24:53.644Z,70.6
2018-08-07T11:25:43.595Z,70.5
2018-08-07T11:26:33.663Z,70.5
2018-08-07T11:27:23.452Z,70.4
2018-08-07T11:28:13.523Z,70.4
2018-08-07T11:29:03.864Z,70.3
2018-08-07T11:29:54.142Z,70.2
2018-08-07T11:30:43.987Z,70.1
2018-08-07T11:31:34.063Z,70
2018-08-07T11:32:24.122Z,69.9
2018-08-07T11:33:14.179Z,69.9
2018-08-07T11:34:04.250Z,70
2018-08-07T11:34:54.315Z,70
2018-08-07T11:35:44.090Z,69.9
2018-08-07T11:36:34.422Z,69.9
2018-08-07T11:37:23.950Z,69.9
2018-08-07T11:38:14.569Z,69.9
2018-08-07T11:39:04.383Z,69.9
2018-08-07T11:39:54.688Z,70
2018-08-07T11:40:44.753Z,70.1
2018-08-07T11:41:34.581Z,70.2
2018-08-07T11:42:24.885Z,70.3
2018-08-07T11:43:14.726Z,70.3
2018-08-07T11:44:05.051Z,70.3
2018-08-07T11:44:54.842Z,70.3
2018-08-07T11:45:45.157Z,70.3
2018-08-07T11:46:35.228Z,70.3
2018-08-07T11:47:25.303Z,70.4
2018-08-07T11:48:15.719Z,70.4
2018-08-07T11:49:05.399Z,70.4
2018-08-07T11:49:55.461Z,70.4
2018-08-07T11:50:45.574Z,70.4
2018-08-07T11:51:35.678Z,70.4
2018-08-07T11:52:25.871Z,70.4
2018-08-07T11:53:15.868Z,70.3
2018-08-07T11:54:05.883Z,70.1
2018-08-07T11:54:55.605Z,69.9
2018-08-07T11:55:45.939Z,69.8
2018-08-07T11:56:35.729Z,69.8
2018-08-07T11:57:25.796Z,69.8
2018-08-07T11:58:16.166Z,69.7
2018-08-07T11:59:06.268Z,69.7
2018-08-07T11:59:55.714Z,69.7
2018-08-07T12:00:46.054Z,69.6
2018-08-07T12:01:36.390Z,69.6
2018-08-07T12:02:26.347Z,69.4
2018-08-07T12:03:16.518Z,69.3
2018-08-07T12:04:06.595Z,69.2
2018-08-07T12:04:56.650Z,69.1
2018-08-07T12:05:46.733Z,68.6
2018-08-07T12:06:36.777Z,67.8
2018-08-07T12:07:26.879Z,67
2018-08-07T12:08:16.742Z,66.1
2018-08-07T12:09:06.445Z,65.5
2018-08-07T12:09:57.062Z,65.3
2018-08-07T12:10:47.114Z,64.9
2018-08-07T12:11:37.174Z,64.1
2018-08-07T12:12:27.250Z,63.1
2018-08-07T12:13:17.040Z,62.4
2018-08-07T12:14:07.386Z,61.8
2018-08-07T12:14:57.188Z,61.6
2018-08-07T12:15:47.233Z,61.5
2018-08-07T12:16:37.323Z,61.8
2018-08-07T12:17:27.627Z,62.6
2018-08-07T12:18:17.699Z,63.4
2018-08-07T12:19:07.771Z,63.9
2018-08-07T12:19:57.841Z,64.3
2018-08-07T12:20:47.886Z,64.3
2018-08-07T12:21:38.273Z,64.3
2018-08-07T12:22:28.061Z,64
2018-08-07T12:23:18.089Z,63.8
2018-08-07T12:24:07.876Z,63.5
2018-08-07T12:24:58.218Z,63.3
2018-08-07T12:25:48.283Z,63.1
2018-08-07T12:26:38.344Z,63.2
2018-08-07T12:27:28.405Z,63.4
2018-08-07T12:28:18.488Z,64.1
2018-08-07T12:29:08.543Z,64.9
2018-08-07T12:29:58.344Z,65.8
2018-08-07T12:30:48.137Z,66.6
2018-08-07T12:31:38.768Z,67.8
2018-08-07T12:32:28.828Z,70
2018-08-07T12:33:18.605Z,70
2018-08-07T12:34:08.973Z,69.1
2018-08-07T12:34:59.223Z,67.1
2018-08-07T12:35:49.084Z,65.2
2018-08-07T12:36:38.589Z,64.2
2018-08-07T12:37:29.214Z,63.7
2018-08-07T12:38:19.014Z,63.6
2018-08-07T12:39:09.333Z,63.6
2018-08-07T12:39:59.408Z,63.8
2018-08-07T12:40:48.624Z,63.8
2018-08-07T12:41:39.564Z,63.6
2018-08-07T12:42:29.628Z,63.3
2018-08-07T12:43:19.682Z,62.9
2018-08-07T12:44:09.456Z,62.6
2018-08-07T12:44:59.530Z,62.3
2018-08-07T12:45:49.867Z,62.1
2018-08-07T12:46:40.282Z,61.8
2018-08-07T12:47:29.984Z,61.6
2018-08-07T12:48:20.052Z,61.3
2018-08-07T12:49:09.858Z,61
2018-08-07T12:49:59.922Z,60.7
2018-08-07T12:50:50.244Z,60.4
2018-08-07T12:51:40.324Z,60.2
2018-08-07T12:52:30.388Z,59.9
2018-08-07T12:53:20.985Z,59.8
2018-08-07T12:54:10.517Z,59.6
2018-08-07T12:55:00.108Z,59.5
2018-08-07T12:55:50.635Z,59.4
2018-08-07T12:56:40.423Z,59.3
2018-08-07T12:57:30.770Z,59
2018-08-07T12:58:20.836Z,58.8
2018-08-07T12:59:10.637Z,58.6
2018-08-07T13:00:01.016Z,58.4
2018-08-07T13:00:50.779Z,58.1
2018-08-07T13:01:41.127Z,57.9
2018-08-07T13:03:20.974Z,57.6
2018-08-07T13:04:11.299Z,57.3
2018-08-07T13:05:01.085Z,57.1
2018-08-07T13:05:51.143Z,56.8
2018-08-07T13:06:41.656Z,56.5
2018-08-07T13:07:31.590Z,56.1
2018-08-07T13:08:21.367Z,55.8
2018-08-07T13:09:11.691Z,55.4
2018-08-07T13:10:01.491Z,55.1
2018-08-07T13:10:51.823Z,54.7
2018-08-07T13:11:41.941Z,54.3
2018-08-07T13:12:31.953Z,53.9
2018-08-07T13:13:22.017Z,53.6
2018-08-07T13:14:12.123Z,53.3
2018-08-07T13:15:02.155Z,53
2018-08-07T13:15:51.935Z,52.7
2018-08-07T13:17:32.383Z,52.1
2018-08-07T13:18:22.420Z,51.8
2018-08-07T13:19:12.495Z,51.4
2018-08-07T13:20:02.281Z,51.1
2018-08-07T13:20:52.366Z,50.8
2018-08-07T13:21:42.686Z,50.4
2018-08-07T13:22:32.761Z,50.1
2018-08-07T13:23:22.546Z,49.8
2018-08-07T13:24:12.883Z,49.5
2018-08-07T13:25:02.403Z,49.3
2018-08-07T13:25:53.499Z,48.9
2018-08-07T13:26:43.082Z,48.7
2018-08-07T13:27:32.877Z,48.4
2018-08-07T13:28:23.254Z,48.3
2018-08-07T13:29:12.975Z,48
2018-08-07T13:30:03.041Z,47.9
2018-08-07T13:30:52.838Z,47.7
2018-08-07T13:31:43.404Z,47.6
2018-08-07T13:32:33.526Z,47.4
2018-08-07T13:33:23.632Z,47.3
2018-08-07T13:34:13.657Z,47.3
2018-08-07T13:35:03.738Z,47.2
2018-08-07T13:35:53.527Z,47.2
2018-08-07T13:36:43.612Z,47.2
2018-08-07T13:37:33.944Z,47.2
2018-08-07T13:38:24.047Z,47.2
2018-08-07T13:39:13.813Z,47.2
2018-08-07T13:40:04.141Z,47.1
2018-08-07T13:40:54.169Z,47.1
2018-08-07T13:41:44.003Z,47.1
2018-08-07T13:42:34.230Z,47.1
2018-08-07T13:43:24.099Z,47.1
2018-08-07T13:44:14.472Z,46.9
2018-08-07T13:45:04.506Z,46.9
2018-08-07T13:45:54.608Z,46.8
2018-08-07T13:46:44.623Z,46.8
2018-08-07T13:47:34.689Z,46.6
2018-08-07T13:48:24.758Z,46.6
2018-08-07T13:49:14.841Z,46.5
2018-08-07T13:50:04.889Z,46.4
2018-08-07T13:50:54.960Z,46.3
2018-08-07T13:51:44.753Z,46.2
2018-08-07T13:52:35.088Z,46.1
2018-08-07T13:53:25.155Z,46
2018-08-07T13:54:15.228Z,45.9
2018-08-07T13:55:05.288Z,45.8
2018-08-07T13:55:55.707Z,45.6
2018-08-07T13:56:45.430Z,45.4
2018-08-07T13:57:35.277Z,45.3
2018-08-07T13:58:25.300Z,45.2
2018-08-07T13:59:15.075Z,45.1
2018-08-07T14:00:05.406Z,45
2018-08-07T14:00:55.758Z,44.9
2018-08-07T14:01:45.841Z,44.8
2018-08-07T14:02:35.607Z,44.8
2018-08-07T14:03:26.079Z,44.7
2018-08-07T14:04:15.743Z,44.6
2018-08-07T14:05:05.820Z,44.5
2018-08-07T14:05:56.184Z,44.4
2018-08-07T14:06:45.661Z,44.3
2018-08-07T14:07:36.016Z,44.3
2018-08-07T14:08:26.345Z,44.1
2018-08-07T14:09:16.369Z,43.9
2018-08-07T14:10:06.476Z,43.8
2018-08-07T14:10:56.262Z,43.6
2018-08-07T14:11:46.611Z,43.5
2018-08-07T14:12:36.845Z,43.3
2018-08-07T14:13:26.739Z,43.2
2018-08-07T14:14:16.538Z,43
2018-08-07T14:15:06.872Z,42.8
2018-08-07T14:15:56.649Z,42.6
2018-08-07T14:16:46.526Z,42.4
2018-08-07T14:17:37.063Z,42.3
2018-08-07T14:18:27.143Z,42.1
2018-08-07T14:19:17.025Z,41.9
2018-08-07T14:20:06.987Z,41.7
2018-08-07T14:20:57.333Z,41.5
2018-08-07T14:21:47.126Z,41.4
2018-08-07T14:22:37.195Z,41.2
2018-08-07T14:23:27.240Z,41.1
2018-08-07T14:24:17.608Z,40.9
2018-08-07T14:25:07.365Z,40.8
2018-08-07T14:25:57.443Z,40.6
2018-08-07T14:26:47.505Z,40.5
2018-08-07T14:27:37.296Z,40.4
2018-08-07T14:28:27.920Z,40.2
2018-08-07T14:29:17.733Z,40.1
2018-08-07T14:30:07.781Z,40
2018-08-07T14:30:57.828Z,39.9
2018-08-07T14:31:48.194Z,39.8
2018-08-07T14:32:38.239Z,39.6
2018-08-07T14:33:27.745Z,39.5